Time;durP1;ratioP1;P1;durP2;ratioP2;P2;SDS_P1;SDS_P2;PMS_P1;PMS_P2;Temp;Humidity;BMP_temperature;BMP_pressure;BME280_temperature;BME280_humidity;BME280_pressure;Samples;Min_cycle;Max_cycle;Signal;HPM_P1;HPM_P2
2022/06/17 00:01:47;;;;;;;10.05;6.63;;;;;;;19.75;46.45;102290.75;4896809;28;124224;-66
2022/06/17 00:04:15;;;;;;;9.38;6.65;;;;;;;19.73;46.66;102292.66;4899579;28;114457;-65
2022/06/17 00:06:48;;;;;;;7.50;6.72;;;;;;;19.71;46.83;102292.72;4901594;28;115673;-65
2022/06/17 00:09:18;;;;;;;9.05;6.90;;;;;;;19.69;46.85;102291.09;4899195;28;124285;-65
2022/06/17 00:11:46;;;;;;;8.85;6.28;;;;;;;19.66;46.87;102286.75;4901912;28;123908;-65
2022/06/17 00:14:16;;;;;;;8.07;6.25;;;;;;;19.66;47.37;102286.75;4901919;28;114541;-64
2022/06/17 00:16:45;;;;;;;9.60;6.95;;;;;;;19.67;47.43;102287.63;4900314;28;113769;-64
2022/06/17 00:19:12;;;;;;;10.10;6.28;;;;;;;19.67;47.49;102287.63;4901576;28;125041;-67
2022/06/17 00:21:44;;;;;;;7.97;6.38;;;;;;;19.68;47.48;102289.34;4898234;28;124065;-65
2022/06/17 00:24:15;;;;;;;8.43;6.38;;;;;;;19.68;47.46;102294.72;4896672;28;114328;-66
2022/06/17 00:26:43;;;;;;;8.82;6.43;;;;;;;19.67;47.45;102293.88;4903395;28;114069;-65
2022/06/17 00:29:13;;;;;;;7.50;6.65;;;;;;;19.67;47.53;102298.38;4918724;28;123175;-65
2022/06/17 00:31:40;;;;;;;8.68;7.07;;;;;;;19.64;47.75;102289.50;4922094;28;122678;-65
2022/06/17 00:34:08;;;;;;;11.07;6.68;;;;;;;19.63;47.93;102290.50;4925820;28;113260;-65
2022/06/17 00:36:36;;;;;;;10.35;6.57;;;;;;;19.65;48.02;102302.00;4922030;28;113252;-65
2022/06/17 00:39:13;;;;;;;9.35;6.63;;;;;;;19.63;48.03;102293.19;4909387;28;123759;-65
2022/06/17 00:41:45;;;;;;;8.40;6.82;;;;;;;19.63;48.09;102297.69;4894330;28;123955;-65
2022/06/17 00:44:40;;;;;;;8.27;6.47;;;;;;;19.60;48.22;102304.09;4899073;28;114087;-67
2022/06/17 00:47:35;;;;;;;11.73;7.23;;;;;;;19.57;48.10;102298.94;4895596;28;113853;-67
2022/06/17 00:50:15;;;;;;;8.82;6.55;;;;;;;19.55;48.12;102295.47;4897010;28;124837;-66
2022/06/17 00:52:57;;;;;;;8.13;6.40;;;;;;;19.55;48.08;102300.84;4898514;28;125094;-67
2022/06/17 00:55:30;;;;;;;12.68;6.38;;;;;;;19.55;48.26;102295.47;4903226;28;116093;-67
2022/06/17 00:57:59;;;;;;;8.27;6.60;;;;;;;19.53;48.33;102302.72;4898907;28;115242;-67
2022/06/17 01:00:30;;;;;;;9.65;6.97;;;;;;;19.51;48.53;102304.66;4910239;28;123575;-67
2022/06/17 01:03:02;;;;;;;12.27;7.07;;;;;;;19.49;48.68;102306.56;4912175;28;122697;-67
2022/06/17 01:05:36;;;;;;;9.48;6.53;;;;;;;19.48;48.81;102310.22;4899532;28;113434;-67
2022/06/17 01:08:13;;;;;;;10.10;7.38;;;;;;;19.47;48.77;102300.41;4910985;28;113261;-67
2022/06/17 01:10:45;;;;;;;9.60;7.43;;;;;;;19.44;48.79;102298.78;4894224;28;123326;-67
2022/06/17 01:13:13;;;;;;;10.10;7.60;;;;;;;19.41;48.92;102304.34;4927551;28;122694;-67
2022/06/17 01:15:42;;;;;;;12.18;7.63;;;;;;;19.40;48.76;102304.41;4902097;28;113216;-67
2022/06/17 01:18:11;;;;;;;11.30;7.50;;;;;;;19.38;48.92;102295.59;4902346;28;113180;-67
2022/06/17 01:20:42;;;;;;;10.13;7.00;;;;;;;19.36;49.24;102306.41;4909512;28;123479;-67
2022/06/17 01:23:13;;;;;;;11.13;7.22;;;;;;;19.35;49.08;102303.84;4895272;28;123516;-67
2022/06/17 01:25:44;;;;;;;8.60;7.68;;;;;;;19.35;49.23;102319.97;4909350;28;113459;-67
2022/06/17 01:28:15;;;;;;;9.85;7.38;;;;;;;19.35;49.39;102314.59;4898811;28;114326;-67
2022/06/17 01:30:45;;;;;;;12.05;8.10;;;;;;;19.35;49.61;102309.22;4904077;28;124776;-67
2022/06/17 01:33:22;;;;;;;11.15;8.00;;;;;;;19.36;49.70;102305.56;4905582;28;123601;-67
2022/06/17 01:35:56;;;;;;;12.00;8.20;;;;;;;19.38;49.54;102303.66;4898469;28;114378;-65
2022/06/17 01:38:26;;;;;;;10.75;8.88;;;;;;;19.38;49.63;102299.16;4911646;28;113219;-64
2022/06/17 01:40:55;;;;;;;11.48;8.63;;;;;;;19.38;49.71;102298.28;4904314;28;123811;-64
2022/06/17 01:43:29;;;;;;;9.88;8.30;;;;;;;19.39;49.52;102298.19;4909609;28;123036;-65
2022/06/17 01:46:03;;;;;;;10.55;8.40;;;;;;;19.37;49.58;102292.03;4910268;28;114247;-65
2022/06/17 01:48:36;;;;;;;10.48;8.43;;;;;;;19.37;49.67;102293.88;4904002;28;113826;-66
2022/06/17 01:51:06;;;;;;;14.48;8.73;;;;;;;19.33;49.63;102285.13;4903305;28;124097;-65
2022/06/17 01:53:38;;;;;;;12.10;8.57;;;;;;;19.30;49.77;102290.66;4922779;28;123862;-65
2022/06/17 01:56:13;;;;;;;12.98;8.32;;;;;;;19.25;49.85;102288.28;4906935;28;114139;-66
2022/06/17 01:58:51;;;;;;;13.63;8.48;;;;;;;19.22;49.86;102280.38;4924495;28;113257;-65
2022/06/17 02:01:22;;;;;;;12.13;8.88;;;;;;;19.19;49.87;102277.00;4905266;28;123723;-65
2022/06/17 02:03:56;;;;;;;9.90;8.57;;;;;;;19.18;49.88;102281.53;4922070;28;122635;-65
2022/06/17 02:06:41;;;;;;;9.73;8.57;;;;;;;19.17;49.96;102279.78;4906951;28;114651;-65
2022/06/17 02:09:08;;;;;;;10.93;8.40;;;;;;;19.17;49.68;102289.66;4901732;28;114486;-65
2022/06/17 02:11:38;;;;;;;10.23;8.05;;;;;;;19.15;49.77;102281.69;4912037;28;123297;-65
2022/06/17 02:14:12;;;;;;;13.95;8.82;;;;;;;19.13;49.66;102285.44;4903517;28;123617;-65
2022/06/17 02:16:58;;;;;;;9.68;8.15;;;;;;;19.10;49.58;102289.16;4928740;28;113733;-65
2022/06/17 02:19:55;;;;;;;11.10;7.82;;;;;;;19.06;49.30;102284.91;4913018;28;113385;-66
2022/06/17 02:22:25;;;;;;;10.65;8.15;;;;;;;19.01;49.48;102300.44;4910011;28;123783;-66
2022/06/17 02:25:00;;;;;;;15.50;9.20;;;;;;;18.96;49.75;102300.69;4907646;28;123190;-66
2022/06/17 02:27:30;;;;;;;12.82;8.88;;;;;;;18.93;49.83;102302.69;4922851;28;113377;-66
2022/06/17 02:29:59;;;;;;;15.63;9.05;;;;;;;18.89;49.87;102301.13;4910151;28;113284;-66
2022/06/17 02:32:28;;;;;;;11.82;8.63;;;;;;;18.86;49.82;102303.03;4902660;28;124129;-66
2022/06/17 02:35:01;;;;;;;10.48;8.68;;;;;;;18.83;50.17;102302.34;4900522;28;124018;-66
2022/06/17 02:37:30;;;;;;;11.88;9.48;;;;;;;18.82;50.04;102301.47;4899726;28;115239;-66
2022/06/17 02:40:01;;;;;;;11.52;9.10;;;;;;;18.81;50.22;102305.09;4923578;28;114041;-66
2022/06/17 02:42:38;;;;;;;11.75;9.48;;;;;;;18.78;50.18;102302.56;4922661;28;126964;-66
2022/06/17 02:45:17;;;;;;;10.95;8.65;;;;;;;18.76;49.98;102296.44;4908611;28;126189;-65
2022/06/17 02:47:46;;;;;;;10.63;8.80;;;;;;;18.74;50.09;102294.78;4892645;28;114036;-65
2022/06/17 02:50:26;;;;;;;12.60;9.27;;;;;;;18.71;50.31;102298.50;4907905;28;113642;-66
2022/06/17 02:52:56;;;;;;;12.75;9.30;;;;;;;18.70;50.70;102296.75;4924433;28;123631;-66
2022/06/17 02:55:31;;;;;;;14.35;9.18;;;;;;;18.71;50.80;102293.13;4908299;28;123079;-66
2022/06/17 02:58:22;;;;;;;;;;;;;;;18.68;49.86;102287.94;4923439;28;113550;-66
2022/06/17 03:00:50;;;;;;;11.70;9.10;;;;;;;18.70;50.19;102280.66;4901493;28;112844;-67
2022/06/17 03:03:20;;;;;;;13.93;8.75;;;;;;;18.69;50.34;102278.94;4898653;28;124719;-68
2022/06/17 03:05:48;;;;;;;10.45;8.82;;;;;;;18.66;50.26;102288.00;4901222;28;123063;-65
2022/06/17 03:08:23;;;;;;;10.77;8.75;;;;;;;18.64;50.28;102291.75;4903501;28;113359;-65
2022/06/17 03:10:55;;;;;;;10.68;8.95;;;;;;;18.61;50.39;102290.09;4901878;28;114999;-66
2022/06/17 03:13:35;;;;;;;13.65;9.07;;;;;;;18.59;50.67;102288.44;4907310;28;124163;-66
2022/06/17 03:16:06;;;;;;;10.30;8.90;;;;;;;18.62;50.67;102293.66;4895713;28;124068;-67
2022/06/17 03:18:33;;;;;;;11.43;9.40;;;;;;;18.63;50.61;102284.66;4908467;28;114077;-67
2022/06/17 03:21:03;;;;;;;12.48;9.45;;;;;;;18.61;50.70;102289.22;4908591;28;113447;-67
2022/06/17 03:23:55;;;;;;;12.75;9.20;;;;;;;18.58;50.77;102282.22;4923968;28;123703;-66
2022/06/17 03:26:27;;;;;;;12.18;9.02;;;;;;;18.59;50.78;102283.97;4895311;28;123533;-65
2022/06/17 03:28:55;;;;;;;10.77;8.90;;;;;;;18.58;50.81;102292.09;4901416;28;114488;-66
2022/06/17 03:31:45;;;;;;;13.38;9.20;;;;;;;18.55;50.70;102300.31;4908096;28;114207;-66
2022/06/17 03:34:12;;;;;;;12.70;9.27;;;;;;;18.53;50.85;102302.22;4922149;28;123277;-66
2022/06/17 03:36:50;;;;;;;15.27;9.32;;;;;;;18.49;50.89;102299.69;4903302;28;123063;-68
2022/06/17 03:39:24;;;;;;;14.32;9.75;;;;;;;18.49;50.89;102305.03;4902872;28;113831;-65
2022/06/17 03:42:08;;;;;;;14.75;9.50;;;;;;;18.48;50.94;102308.69;4926029;28;115295;-68
2022/06/17 03:44:40;;;;;;;15.65;9.77;;;;;;;18.47;50.94;102312.31;4895649;28;123516;-66
2022/06/17 03:47:24;;;;;;;18.33;10.43;;;;;;;18.46;50.92;102309.75;4926868;28;123759;-66
2022/06/17 03:50:08;;;;;;;19.92;9.70;;;;;;;18.46;50.95;102315.97;4897980;28;114379;-65
2022/06/17 03:52:51;;;;;;;17.42;10.13;;;;;;;18.47;51.10;102317.69;4894193;28;113566;-67
2022/06/17 03:55:21;;;;;;;14.70;9.55;;;;;;;18.48;51.18;102319.44;4909290;28;123515;-68
2022/06/17 03:57:52;;;;;;;15.35;9.98;;;;;;;18.52;51.45;102321.97;4907911;28;122954;-68
2022/06/17 04:00:40;;;;;;;13.88;9.90;;;;;;;18.54;51.48;102322.75;4907573;28;113479;-66
2022/06/17 04:03:13;;;;;;;14.27;10.02;;;;;;;18.60;51.64;102325.06;4898304;28;113009;-66
2022/06/17 04:05:43;;;;;;;14.75;10.27;;;;;;;18.65;51.60;102325.69;4895317;28;123198;-66
2022/06/17 04:08:13;;;;;;;13.30;10.77;;;;;;;18.71;51.51;102330.72;4916177;28;123613;-66
2022/06/17 04:10:44;;;;;;;14.98;11.00;;;;;;;18.75;51.87;102324.22;4915561;28;113415;-66
2022/06/17 04:13:15;;;;;;;15.98;11.35;;;;;;;18.78;51.98;102325.84;4897891;28;114071;-67
2022/06/17 04:16:17;;;;;;;16.10;11.00;;;;;;;18.79;52.05;102315.03;4908056;28;123667;-67
2022/06/17 04:18:44;;;;;;;16.67;10.75;;;;;;;18.83;52.03;102322.00;4906023;28;122995;-68
2022/06/17 04:21:13;;;;;;;14.20;10.88;;;;;;;18.88;52.28;102318.22;4907507;28;115893;-68
2022/06/17 04:23:41;;;;;;;14.52;10.65;;;;;;;18.95;52.39;102327.63;4900647;28;115204;-66
2022/06/17 04:26:35;;;;;;;14.93;10.10;;;;;;;19.02;52.24;102320.94;4899190;28;124500;-67
2022/06/17 04:29:30;;;;;;;14.38;10.48;;;;;;;19.10;52.36;102316.03;4909623;28;126267;-68
2022/06/17 04:32:22;;;;;;;15.18;10.57;;;;;;;19.17;52.35;102301.25;4915874;28;113313;-68
2022/06/17 04:34:50;;;;;;;14.38;10.93;;;;;;;19.26;52.25;102300.72;4909485;28;112112;-67
2022/06/17 04:37:20;;;;;;;15.48;10.32;;;;;;;19.34;52.30;102312.84;4905271;28;123196;-67
2022/06/17 04:40:04;;;;;;;14.23;10.80;;;;;;;19.41;52.08;102306.16;4906255;28;122997;-67
2022/06/17 04:42:46;;;;;;;15.68;10.25;;;;;;;19.49;52.11;102305.72;4893991;28;114912;-68
2022/06/17 04:45:17;;;;;;;12.85;10.73;;;;;;;19.56;51.97;102310.63;4915882;28;112853;-67
2022/06/17 04:47:46;;;;;;;14.90;10.75;;;;;;;19.64;52.26;102305.66;4905310;28;123660;-66
2022/06/17 04:50:21;;;;;;;14.88;10.25;;;;;;;19.72;51.83;102297.19;4908780;28;123052;-66
2022/06/17 04:52:55;;;;;;;12.88;10.20;;;;;;;19.80;51.59;102291.34;4907096;28;113885;-65
2022/06/17 04:55:28;;;;;;;18.50;10.48;;;;;;;19.86;51.35;102288.25;4899851;28;114503;-65
2022/06/17 04:58:21;;;;;;;15.50;10.27;;;;;;;19.92;51.34;102293.25;4895404;28;124323;-66
2022/06/17 05:00:56;;;;;;;13.85;9.77;;;;;;;19.99;51.00;102294.59;4921370;28;123765;-66
2022/06/17 05:03:32;;;;;;;15.07;10.30;;;;;;;20.06;51.08;102299.59;4907406;28;116674;-66
2022/06/17 05:06:18;;;;;;;13.38;10.60;;;;;;;20.11;50.91;102297.50;4901543;28;115235;-66
2022/06/17 05:08:51;;;;;;;16.08;10.55;;;;;;;20.18;51.03;102288.09;4906288;28;122941;-66
2022/06/17 05:11:26;;;;;;;12.93;10.85;;;;;;;20.26;50.88;102293.00;4906534;28;126618;-66
2022/06/17 05:14:36;;;;;;;15.65;10.50;;;;;;;20.32;50.84;102290.75;4905229;28;118148;-66
2022/06/17 05:17:03;;;;;;;15.63;10.27;;;;;;;20.38;50.71;102297.56;4903023;28;114254;-67
2022/06/17 05:19:31;;;;;;;14.23;9.90;;;;;;;20.45;50.47;102290.84;4921811;28;123250;-67
2022/06/17 05:22:01;;;;;;;11.88;9.27;;;;;;;20.51;50.10;102286.91;4891289;28;123942;-67
2022/06/17 05:24:30;;;;;;;14.65;10.15;;;;;;;20.58;50.23;102290.94;4906807;28;113505;-67
2022/06/17 05:26:58;;;;;;;16.58;10.15;;;;;;;20.64;50.01;102277.09;4907430;28;113326;-67
2022/06/17 05:29:26;;;;;;;19.75;10.63;;;;;;;20.72;50.04;102277.50;4907393;28;123915;-67
2022/06/17 05:31:58;;;;;;;17.48;9.93;;;;;;;20.79;49.80;102289.59;4906525;28;123109;-67
2022/06/17 05:34:34;;;;;;;15.18;9.93;;;;;;;20.89;49.61;102278.19;4897668;28;117087;-67
2022/06/17 05:37:01;;;;;;;15.02;10.38;;;;;;;20.98;49.69;102277.59;4901785;28;113139;-67
2022/06/17 05:39:33;;;;;;;15.07;9.57;;;;;;;21.11;49.26;102283.03;4909173;28;123129;-67
2022/06/17 05:42:00;;;;;;;16.10;10.10;;;;;;;21.20;49.13;102277.88;4902639;28;123045;-66
2022/06/17 05:44:27;;;;;;;11.90;9.55;;;;;;;21.33;48.93;102277.06;4912858;28;113152;-66
2022/06/17 05:47:07;;;;;;;12.85;10.23;;;;;;;21.45;49.13;102278.94;4914270;28;113388;-66
2022/06/17 05:49:55;;;;;;;12.32;9.00;;;;;;;21.64;48.97;102280.38;4879039;28;124197;-67
2022/06/17 05:52:59;;;;;;;11.43;9.82;;;;;;;21.84;49.03;102284.38;4911248;28;123834;-66
2022/06/17 05:55:41;;;;;;;15.10;9.85;;;;;;;22.03;48.55;102286.66;4910531;28;114192;-67
2022/06/17 05:58:09;;;;;;;12.30;9.77;;;;;;;22.20;48.42;102280.91;4909576;28;113249;-66
2022/06/17 06:00:37;;;;;;;13.20;9.27;;;;;;;22.37;48.13;102285.13;4910313;28;123339;-66
2022/06/17 06:03:06;;;;;;;12.23;9.07;;;;;;;22.54;48.01;102286.59;4896207;28;124755;-66
2022/06/17 06:05:36;;;;;;;11.63;8.93;;;;;;;22.71;47.74;102294.31;4911144;28;114625;-67
2022/06/17 06:08:08;;;;;;;12.88;8.57;;;;;;;22.85;47.08;102284.34;4901421;28;114245;-67
2022/06/17 06:10:39;;;;;;;13.52;8.65;;;;;;;22.96;46.67;102281.69;4910703;28;123236;-64
2022/06/17 06:13:07;;;;;;;13.63;8.00;;;;;;;23.06;46.57;102277.38;4912006;28;123014;-65
2022/06/17 06:15:42;;;;;;;13.88;8.27;;;;;;;23.17;46.58;102273.88;4909478;28;113855;-65
2022/06/17 06:18:28;;;;;;;16.90;8.73;;;;;;;23.31;46.06;102270.09;4905409;28;114262;-65
2022/06/17 06:20:56;;;;;;;12.18;8.20;;;;;;;23.40;45.87;102274.81;4903280;28;123675;-65
2022/06/17 06:23:26;;;;;;;11.07;8.25;;;;;;;23.49;45.83;102268.69;4910347;28;123575;-65
2022/06/17 06:25:54;;;;;;;10.73;7.78;;;;;;;23.60;45.30;102261.56;4909021;28;115182;-65
2022/06/17 06:28:23;;;;;;;12.13;8.10;;;;;;;23.67;45.06;102265.53;4902581;28;113943;-65
2022/06/17 06:31:34;;;;;;;12.98;8.25;;;;;;;23.73;44.90;102264.19;4906741;28;122492;-66
2022/06/17 06:34:07;;;;;;;;;;;;;;;23.75;45.15;102265.78;4910122;28;123433;-65
2022/06/17 06:36:43;;;;;;;12.93;8.48;;;;;;;23.84;45.14;102262.38;4909903;28;113574;-67
2022/06/17 06:39:10;;;;;;;13.63;8.45;;;;;;;23.95;45.17;102266.94;4924534;28;113294;-67
2022/06/17 06:41:37;;;;;;;13.32;8.52;;;;;;;24.05;44.85;102267.06;4902702;28;124565;-67
2022/06/17 06:44:04;;;;;;;14.70;8.52;;;;;;;24.12;44.55;102271.03;4903449;28;123990;-68
2022/06/17 06:47:01;;;;;;;14.90;7.55;;;;;;;24.19;44.60;102266.84;4903084;28;114125;-67
2022/06/17 06:49:36;;;;;;;10.98;8.15;;;;;;;24.26;44.36;102268.06;4901316;28;117579;-68
2022/06/17 06:52:04;;;;;;;10.93;8.07;;;;;;;24.35;44.13;102265.59;4920873;28;126217;-67
2022/06/17 06:54:32;;;;;;;10.00;7.85;;;;;;;24.44;43.96;102262.13;4899337;28;123302;-67
2022/06/17 06:57:00;;;;;;;9.50;7.22;;;;;;;24.49;43.54;102257.22;4907896;28;114235;-67
2022/06/17 06:59:47;;;;;;;10.93;7.72;;;;;;;24.60;44.16;102259.94;4926772;28;113955;-67
2022/06/17 07:02:14;;;;;;;10.02;7.45;;;;;;;24.73;43.60;102258.91;4909268;28;123833;-68
2022/06/17 07:04:44;;;;;;;11.48;7.55;;;;;;;24.84;43.79;102267.00;4910090;28;123141;-68
2022/06/17 07:07:11;;;;;;;12.30;6.72;;;;;;;24.96;43.19;102273.25;4906938;28;113125;-68
2022/06/17 07:09:38;;;;;;;9.18;6.03;;;;;;;25.10;42.96;102272.09;4904354;28;114313;-67
2022/06/17 07:12:06;;;;;;;11.43;6.03;;;;;;;25.22;42.62;102265.63;4904879;28;123832;-67
2022/06/17 07:14:33;;;;;;;8.35;5.30;;;;;;;25.35;42.54;102260.91;4900059;28;123776;-68
2022/06/17 07:17:00;;;;;;;8.50;5.15;;;;;;;25.47;42.24;102263.56;4901895;28;114297;-67
2022/06/17 07:19:28;;;;;;;6.63;4.95;;;;;;;25.61;42.13;102260.53;4897251;28;113570;-67
2022/06/17 07:21:55;;;;;;;8.07;5.13;;;;;;;25.71;42.32;102257.84;4904328;28;124285;-68
2022/06/17 07:24:22;;;;;;;10.73;5.13;;;;;;;25.79;41.62;102258.06;4895977;28;123832;-67
2022/06/17 07:26:49;;;;;;;5.38;4.50;;;;;;;25.82;41.38;102258.66;4899872;28;113686;-68
2022/06/17 07:29:16;;;;;;;7.40;4.93;;;;;;;25.88;40.92;102259.09;4900243;28;114646;-68
2022/06/17 07:31:43;;;;;;;6.13;4.38;;;;;;;25.95;40.86;102258.44;4907700;28;124735;-67
2022/06/17 07:34:10;;;;;;;5.82;3.90;;;;;;;26.06;40.89;102254.78;4901886;28;124581;-67
2022/06/17 07:42:12;;;;;;;8.63;4.40;;;;;;;26.29;39.85;102238.28;4906926;28;123197;-68
2022/06/17 07:44:39;;;;;;;7.32;4.15;;;;;;;26.32;39.68;102241.59;4905258;28;122708;-68
2022/06/17 07:47:14;;;;;;;6.32;4.28;;;;;;;26.32;39.16;102243.47;4898377;28;115542;-68
2022/06/17 07:49:41;;;;;;;6.35;3.88;;;;;;;26.29;39.07;102249.16;4904929;28;114663;-68
2022/06/17 07:52:09;;;;;;;7.72;4.32;;;;;;;26.29;39.26;102249.16;4901377;28;124790;-68
2022/06/17 07:54:37;;;;;;;7.38;4.03;;;;;;;26.30;39.39;102249.03;4898072;28;124413;-68
2022/06/17 07:57:04;;;;;;;6.05;3.88;;;;;;;26.37;39.56;102262.91;4894885;28;113995;-67
2022/06/17 07:59:32;;;;;;;6.65;4.25;;;;;;;26.44;39.18;102264.06;4898564;28;113966;-68
2022/06/17 08:01:59;;;;;;;7.30;4.40;;;;;;;26.52;39.00;102266.97;4899306;28;123813;-68
2022/06/17 08:04:27;;;;;;;6.03;4.07;;;;;;;26.64;39.45;102264.16;4901058;28;124732;-68
2022/06/17 08:06:54;;;;;;;7.35;4.35;;;;;;;26.79;39.29;102257.31;4896317;28;114396;-68
2022/06/17 08:09:28;;;;;;;5.72;3.63;;;;;;;26.96;39.20;102259.34;4903649;28;114295;-68
2022/06/17 08:11:55;;;;;;;5.93;3.70;;;;;;;27.10;38.42;102254.47;4901070;28;124080;-67
2022/06/17 08:14:22;;;;;;;6.32;3.55;;;;;;;27.20;38.31;102260.78;4895812;28;124866;-67
2022/06/17 08:16:50;;;;;;;5.93;3.20;;;;;;;27.27;37.77;102256.47;4897478;28;114200;-67
2022/06/17 08:19:18;;;;;;;3.67;3.00;;;;;;;27.33;37.59;102261.38;4898095;28;114111;-67
2022/06/17 08:21:45;;;;;;;7.70;2.83;;;;;;;27.41;37.07;102265.19;4898094;28;123832;-68
2022/06/17 08:24:28;;;;;;;4.50;2.70;;;;;;;27.49;37.21;102273.53;4903331;28;123676;-68
2022/06/17 08:26:55;;;;;;;5.32;2.70;;;;;;;27.58;36.99;102275.38;4912856;28;113219;-67
2022/06/17 08:29:22;;;;;;;4.75;2.97;;;;;;;27.70;36.89;102285.06;4901377;28;114044;-67
2022/06/17 08:34:55;;;;;;;6.32;2.70;;;;;;;28.02;36.44;102278.41;4898850;28;124550;-67
2022/06/17 08:37:23;;;;;;;5.13;2.97;;;;;;;28.11;36.00;102282.97;4894888;28;116104;-67
2022/06/17 08:39:52;;;;;;;5.85;2.90;;;;;;;28.23;36.18;102266.44;4893157;28;114726;-66
2022/06/17 08:42:33;;;;;;;5.00;2.70;;;;;;;28.39;36.15;102269.38;4900245;28;124146;-67
2022/06/17 08:45:17;;;;;;;3.65;2.63;;;;;;;28.58;35.84;102262.13;4895695;28;124390;-67
2022/06/17 08:48:00;;;;;;;5.05;2.80;;;;;;;28.69;35.34;102259.19;4893862;28;114224;-67
2022/06/17 08:50:43;;;;;;;4.97;2.58;;;;;;;28.78;35.07;102258.22;4910747;28;114230;-67
2022/06/17 08:53:37;;;;;;;5.90;2.90;;;;;;;28.83;34.75;102250.44;4894793;28;124143;-67
2022/06/17 08:56:14;;;;;;;4.83;2.50;;;;;;;28.85;34.92;102253.88;4893490;28;124315;-67
2022/06/17 08:59:07;;;;;;;5.38;3.00;;;;;;;28.92;34.93;102246.78;4898313;28;114159;-67
2022/06/17 09:01:42;;;;;;;5.05;2.90;;;;;;;28.99;34.34;102244.31;4908774;28;113401;-67
2022/06/17 09:04:24;;;;;;;6.43;3.40;;;;;;;29.09;34.41;102241.50;4923179;28;124438;-67
2022/06/17 09:07:30;;;;;;;5.90;3.03;;;;;;;29.20;34.34;102246.75;4910594;28;123651;-67
2022/06/17 09:10:00;;;;;;;4.97;3.05;;;;;;;29.28;33.97;102244.06;4911675;28;115233;-67
2022/06/17 09:12:52;;;;;;;5.15;2.55;;;;;;;29.37;34.22;102246.88;4917992;28;113837;-67
2022/06/17 09:15:41;;;;;;;5.80;2.67;;;;;;;29.48;33.98;102254.81;4896861;28;124679;-67
2022/06/17 09:18:35;;;;;;;3.95;2.58;;;;;;;29.57;33.95;102259.28;4897439;28;123749;-67
2022/06/17 09:21:25;;;;;;;4.00;2.67;;;;;;;29.66;33.65;102262.94;4904946;28;114853;-67
2022/06/17 09:23:54;;;;;;;4.85;2.80;;;;;;;29.77;33.04;102267.31;4923048;28;114368;-66
2022/06/17 09:26:28;;;;;;;5.32;3.40;;;;;;;29.87;32.82;102265.31;4915267;28;123975;-66
2022/06/17 09:29:02;;;;;;;6.35;3.35;;;;;;;29.95;33.03;102262.66;4905131;28;123684;-67
2022/06/17 09:31:33;;;;;;;5.63;3.50;;;;;;;30.03;32.50;102254.47;4907138;28;115024;-67
2022/06/17 09:34:11;;;;;;;4.80;3.05;;;;;;;30.12;32.51;102246.31;4906435;28;115491;-67
2022/06/17 09:37:01;;;;;;;5.25;2.70;;;;;;;30.23;32.64;102237.81;4910592;28;98580;-67
2022/06/17 09:39:41;;;;;;;7.75;2.90;;;;;;;30.33;32.47;102233.13;4912987;28;125220;-66
2022/06/17 09:42:23;;;;;;;4.75;2.60;;;;;;;30.42;31.65;102236.72;4903544;28;114720;-66
2022/06/17 09:45:17;;;;;;;4.15;2.55;;;;;;;30.43;31.23;102239.28;4913016;28;114661;-66
2022/06/17 09:47:55;;;;;;;4.13;2.75;;;;;;;30.37;30.82;102239.97;4905258;28;125140;-67
2022/06/17 09:50:31;;;;;;;8.95;2.75;;;;;;;30.38;31.35;102238.06;4914893;28;123858;-67
2022/06/17 09:53:07;;;;;;;7.72;3.00;;;;;;;30.44;30.96;102234.66;4912562;28;114713;-66
2022/06/17 09:55:46;;;;;;;4.05;2.58;;;;;;;30.50;30.80;102249.53;4903215;28;113870;-66
2022/06/17 09:58:19;;;;;;;4.18;2.85;;;;;;;30.53;30.20;102243.75;4898105;28;125059;-66
2022/06/17 10:00:53;;;;;;;5.80;2.60;;;;;;;30.54;30.58;102245.47;4905518;28;124924;-67
2022/06/17 10:03:24;;;;;;;5.25;2.63;;;;;;;30.60;31.06;102247.53;4913924;28;113238;-67
2022/06/17 10:06:19;;;;;;;5.03;2.50;;;;;;;30.65;31.21;102247.91;4916442;28;112895;-66
2022/06/17 10:09:22;;;;;;;4.35;1.98;;;;;;;30.74;30.70;102235.97;4911711;28;124217;-66
2022/06/17 10:12:08;;;;;;;4.07;2.55;;;;;;;30.84;30.75;102236.63;4887794;28;123723;-66
2022/06/17 10:15:01;;;;;;;6.05;2.80;;;;;;;30.90;30.86;102240.59;4903451;28;113994;-66
2022/06/17 10:20:47;;;;;;;3.92;1.83;;;;;;;31.04;29.85;102219.91;4909235;28;123791;-65
2022/06/17 10:23:34;;;;;;;3.25;2.38;;;;;;;31.13;29.55;102224.34;4911419;28;125223;-66
2022/06/17 10:26:19;;;;;;;5.53;2.72;;;;;;;31.17;29.91;102220.25;4899236;28;116197;-66
2022/06/17 10:29:11;;;;;;;4.95;2.50;;;;;;;31.24;30.10;102213.06;4913578;28;115951;-68
2022/06/17 10:31:47;;;;;;;3.45;2.20;;;;;;;31.32;30.43;102208.59;4903886;28;124553;-67
2022/06/17 10:34:28;;;;;;;4.72;2.33;;;;;;;31.38;29.42;102205.16;4898928;28;124348;-68
2022/06/17 10:37:00;;;;;;;3.85;2.55;;;;;;;31.35;29.30;102205.53;4902660;28;114345;-66
2022/06/17 10:39:31;;;;;;;4.68;2.33;;;;;;;31.33;29.45;102202.13;4912337;28;114168;-67
2022/06/17 10:41:59;;;;;;;5.10;2.17;;;;;;;31.36;30.04;102201.75;4911758;28;124240;-67
2022/06/17 10:44:31;;;;;;;4.93;2.70;;;;;;;31.43;29.64;102195.41;4913806;28;125021;-67
2022/06/17 10:47:15;;;;;;;4.05;2.58;;;;;;;31.51;29.68;102194.56;4913481;28;114526;-67
2022/06/17 10:49:50;;;;;;;4.68;2.17;;;;;;;31.62;30.71;102185.97;4912630;28;113845;-66
2022/06/17 10:52:52;;;;;;;4.25;2.28;;;;;;;31.78;30.21;102189.72;4911676;28;124869;-65
2022/06/17 10:55:42;;;;;;;3.80;2.00;;;;;;;31.89;30.31;102197.53;4894877;28;124116;-65
2022/06/17 10:58:21;;;;;;;6.60;2.50;;;;;;;31.93;29.19;102193.41;4904579;28;114340;-65
2022/06/17 11:00:59;;;;;;;3.88;2.20;;;;;;;31.96;29.04;102194.94;4899165;28;113967;-66
2022/06/17 11:03:37;;;;;;;3.00;2.08;;;;;;;32.04;29.07;102194.91;4911164;28;124350;-66
2022/06/17 11:06:18;;;;;;;5.57;2.10;;;;;;;32.14;29.47;102183.75;4897316;28;123891;-67
2022/06/17 11:08:57;;;;;;;5.07;2.35;;;;;;;32.23;28.91;102171.72;4912106;28;113974;-67
2022/06/17 11:14:23;;;;;;;4.93;2.95;;;;;;;32.27;28.05;102167.56;4910782;28;125712;-65
2022/06/17 11:16:50;;;;;;;5.07;2.50;;;;;;;32.31;28.88;102174.41;4913339;28;124059;-65
2022/06/17 11:19:21;;;;;;;7.68;2.90;;;;;;;32.38;28.64;102169.03;4894163;28;115720;-65
2022/06/17 11:22:00;;;;;;;5.00;2.70;;;;;;;32.47;28.94;102170.69;4903244;28;115189;-66
2022/06/17 11:24:38;;;;;;;4.18;1.88;;;;;;;32.55;27.89;102158.78;4912124;28;124805;-65
2022/06/17 11:27:30;;;;;;;3.75;2.50;;;;;;;32.57;28.12;102162.28;4898374;28;124618;-66
2022/06/17 11:30:20;;;;;;;4.03;2.60;;;;;;;32.59;28.11;102150.06;4893454;28;114705;-67
2022/06/17 11:32:48;;;;;;;2.83;2.20;;;;;;;32.67;28.60;102146.41;4905109;28;113793;-65
2022/06/17 11:35:23;;;;;;;4.55;2.28;;;;;;;32.73;28.49;102140.16;4891801;28;124812;-65
2022/06/17 11:37:51;;;;;;;3.78;2.40;;;;;;;32.83;28.72;102139.06;4907997;28;124370;-66
2022/06/17 11:40:20;;;;;;;5.93;2.30;;;;;;;32.92;27.98;102132.47;4913698;28;114431;-66
2022/06/17 11:42:57;;;;;;;3.88;2.80;;;;;;;32.98;27.47;102132.59;4910949;28;114504;-66
2022/06/17 11:45:32;;;;;;;4.03;2.35;;;;;;;33.02;27.45;102127.56;4910418;28;124330;-65
2022/06/17 11:48:13;;;;;;;5.40;2.53;;;;;;;33.06;27.57;102126.16;4909678;28;123729;-66
2022/06/17 11:50:58;;;;;;;6.13;3.03;;;;;;;33.10;27.50;102121.16;4909891;28;114547;-66
2022/06/17 11:53:25;;;;;;;3.80;2.75;;;;;;;33.15;27.52;102111.34;4912075;28;113822;-67
2022/06/17 11:55:53;;;;;;;4.28;2.70;;;;;;;33.24;28.00;102111.22;4900695;28;124353;-67
2022/06/17 11:58:57;;;;;;;7.45;2.92;;;;;;;33.31;27.75;102109.44;4906189;28;124548;-67
2022/06/17 12:01:25;;;;;;;3.63;2.33;;;;;;;33.43;27.47;102118.91;4901614;28;114153;-66
2022/06/17 12:03:52;;;;;;;4.47;2.30;;;;;;;33.52;27.00;102120.50;4912333;28;113026;-66